createdAt,value
2022-11-16T00:01:36.396Z,90.58
2022-11-16T00:06:29.126Z,91.23
2022-11-16T00:11:20.759Z,90.43
2022-11-16T00:16:16.206Z,90.70
2022-11-16T00:21:08.189Z,90.81
2022-11-16T00:26:07.889Z,90.69
2022-11-16T00:31:04.433Z,90.94
2022-11-16T00:35:56.218Z,90.63
2022-11-16T00:40:48.025Z,90.67
2022-11-16T00:45:43.062Z,90.95
2022-11-16T00:50:34.691Z,91.11
2022-11-16T00:55:26.422Z,90.94
2022-11-16T01:00:18.836Z,91.23
2022-11-16T01:05:11.124Z,91.94
2022-11-16T01:10:05.887Z,91.96
2022-11-16T01:14:57.551Z,91.45
2022-11-16T01:19:49.143Z,92.27
2022-11-16T01:24:40.875Z,92.36
2022-11-16T01:29:32.574Z,92.30
2022-11-16T01:34:26.167Z,92.29
2022-11-16T01:39:23.655Z,92.85
2022-11-16T01:44:31.621Z,93.08
2022-11-16T01:49:34.595Z,92.82
2022-11-16T01:54:27.368Z,93.19
2022-11-16T01:59:24.460Z,93.04
2022-11-16T02:04:16.480Z,93.24
2022-11-16T02:09:52.886Z,93.05
2022-11-16T02:15:20.208Z,92.81
2022-11-16T02:20:41.674Z,93.20
2022-11-16T02:25:55.238Z,93.09
2022-11-16T02:30:50.625Z,93.22
2022-11-16T02:35:50.175Z,92.92
2022-11-16T02:40:47.305Z,92.29
2022-11-16T02:45:48.825Z,92.61
2022-11-16T02:50:41.712Z,92.87
2022-11-16T02:55:35.346Z,92.85
2022-11-16T03:00:33.848Z,92.85
2022-11-16T03:05:39.006Z,92.58
2022-11-16T03:10:55.527Z,92.52
2022-11-16T03:15:49.507Z,92.72
2022-11-16T03:20:44.227Z,92.60
2022-11-16T03:25:50.744Z,92.70
2022-11-16T03:30:52.252Z,93.30
2022-11-16T03:36:01.358Z,92.68
2022-11-16T03:41:02.974Z,93.04
2022-11-16T03:45:57.276Z,92.91
2022-11-16T03:50:49.626Z,93.32
2022-11-16T03:55:45.670Z,92.77
2022-11-16T04:00:40.331Z,92.72
2022-11-16T04:05:53.572Z,92.96
2022-11-16T04:11:04.108Z,92.57
2022-11-16T04:16:16.583Z,92.26
2022-11-16T04:21:37.837Z,92.66
2022-11-16T04:26:48.239Z,92.53
2022-11-16T04:31:58.667Z,91.92
2022-11-16T04:37:08.884Z,91.79
2022-11-16T04:42:15.703Z,91.51
2022-11-16T04:47:09.761Z,90.99
2022-11-16T04:52:03.671Z,91.88
2022-11-16T04:56:57.448Z,91.73
2022-11-16T05:02:08.113Z,91.98
2022-11-16T05:07:04.093Z,91.78
2022-11-16T05:11:55.919Z,91.16
2022-11-16T05:16:47.785Z,91.15
2022-11-16T05:21:39.420Z,91.13
2022-11-16T05:26:31.098Z,91.02
2022-11-16T05:31:22.712Z,91.20
2022-11-16T05:36:14.433Z,91.04
2022-11-16T05:41:06.355Z,90.90
2022-11-16T05:45:58.486Z,91.34
2022-11-16T05:50:50.559Z,90.66
2022-11-16T05:55:50.084Z,90.66
2022-11-16T06:00:43.416Z,90.42
2022-11-16T06:05:40.212Z,91.15
2022-11-16T06:10:32.317Z,90.81
2022-11-16T06:15:24.148Z,90.83
2022-11-16T06:20:17.404Z,91.72
2022-11-16T06:25:10.973Z,92.12
2022-11-16T06:30:07.822Z,91.32
2022-11-16T06:34:59.655Z,91.64
2022-11-16T06:39:51.606Z,91.28
2022-11-16T06:44:43.342Z,91.19
2022-11-16T06:49:38.522Z,91.59
2022-11-16T06:54:37.439Z,91.47
2022-11-16T06:59:29.635Z,91.00
2022-11-16T07:04:21.216Z,90.29
2022-11-16T07:09:19.225Z,90.01
2022-11-16T07:14:14.315Z,89.46
2022-11-16T07:19:07.546Z,89.99
2022-11-16T07:24:00.984Z,90.06
2022-11-16T07:28:52.591Z,89.95
2022-11-16T07:33:46.716Z,91.14
2022-11-16T07:38:56.695Z,88.75
2022-11-16T07:43:52.988Z,85.33
2022-11-16T07:48:49.652Z,87.20
2022-11-16T07:53:42.053Z,86.62
2022-11-16T07:58:35.341Z,82.30
2022-11-16T08:03:28.290Z,82.92
2022-11-16T08:08:20.072Z,82.89
2022-11-16T08:13:11.813Z,81.38
2022-11-16T08:18:04.555Z,77.57
2022-11-16T08:23:01.039Z,75.85
2022-11-16T08:27:56.095Z,77.30
2022-11-16T08:32:48.321Z,77.30
2022-11-16T08:37:40.901Z,77.32
2022-11-16T08:42:33.731Z,80.12
2022-11-16T08:47:25.394Z,79.09
2022-11-16T08:52:23.089Z,75.58
2022-11-16T08:57:16.372Z,75.12
2022-11-16T09:02:10.461Z,75.48
2022-11-16T09:07:02.136Z,75.19
2022-11-16T09:11:55.302Z,76.32
2022-11-16T09:16:46.877Z,74.60
2022-11-16T09:21:38.464Z,73.29
2022-11-16T09:26:30.160Z,72.49
2022-11-16T09:31:23.776Z,73.67
2022-11-16T09:36:17.097Z,71.02
2022-11-16T09:41:18.939Z,72.94
2022-11-16T09:46:26.769Z,73.16
2022-11-16T09:51:22.169Z,72.69
2022-11-16T09:56:22.509Z,72.86
2022-11-16T10:01:22.504Z,70.44
2022-11-16T10:06:26.104Z,70.82
2022-11-16T10:11:55.136Z,71.28
2022-11-16T10:17:18.036Z,70.64
2022-11-16T10:22:43.607Z,70.74
2022-11-16T10:27:42.638Z,72.96
2022-11-16T10:32:57.219Z,70.58
2022-11-16T10:37:50.669Z,72.16
2022-11-16T10:42:42.299Z,70.42
2022-11-16T10:47:44.791Z,71.28
2022-11-16T10:52:36.325Z,71.05
2022-11-16T10:58:13.626Z,70.56
2022-11-16T11:03:05.269Z,69.18
2022-11-16T11:08:10.650Z,70.40
2022-11-16T11:13:11.819Z,70.39
2022-11-16T11:18:10.534Z,69.86
2022-11-16T11:23:34.720Z,68.50
2022-11-16T11:28:37.498Z,68.39
2022-11-16T11:33:32.933Z,68.44
2022-11-16T11:38:25.924Z,66.56
2022-11-16T11:43:25.201Z,65.84
2022-11-16T11:48:19.645Z,65.67
2022-11-16T11:53:14.219Z,66.18
2022-11-16T11:58:11.303Z,66.93
2022-11-16T12:03:05.964Z,68.33
2022-11-16T12:08:23.085Z,64.92
2022-11-16T12:13:23.528Z,64.41
2022-11-16T12:18:14.964Z,59.11
2022-11-16T12:23:44.777Z,58.62
2022-11-16T12:28:39.067Z,58.35
2022-11-16T12:33:55.519Z,57.80
2022-11-16T12:39:05.740Z,56.27
2022-11-16T12:44:00.104Z,54.52
2022-11-16T12:48:51.629Z,56.52
2022-11-16T12:54:04.316Z,56.92
2022-11-16T12:59:24.069Z,56.04
2022-11-16T13:04:21.479Z,55.12
2022-11-16T13:09:18.526Z,56.28
2022-11-16T13:14:19.398Z,56.86
2022-11-16T13:19:14.902Z,57.33
2022-11-16T13:24:31.175Z,56.63
2022-11-16T13:29:49.560Z,56.49
2022-11-16T13:34:41.678Z,57.06
2022-11-16T13:39:57.515Z,57.96
2022-11-16T13:44:51.618Z,57.67
2022-11-16T13:49:53.533Z,57.81
2022-11-16T13:54:50.275Z,58.79
2022-11-16T13:59:42.182Z,58.93
2022-11-16T14:04:56.209Z,58.73
2022-11-16T14:09:49.208Z,59.31
2022-11-16T14:15:04.035Z,59.04
2022-11-16T14:19:55.984Z,59.54
2022-11-16T14:24:57.014Z,59.45
2022-11-16T14:30:10.375Z,59.34
2022-11-16T14:35:05.497Z,58.75
2022-11-16T14:40:18.457Z,59.07
2022-11-16T14:45:27.117Z,59.20
2022-11-16T14:50:22.513Z,59.54
2022-11-16T14:55:20.748Z,59.89
2022-11-16T15:00:19.636Z,60.34
2022-11-16T15:05:20.916Z,61.24
2022-11-16T15:10:24.367Z,60.89
2022-11-16T15:15:19.219Z,61.08
2022-11-16T15:20:24.091Z,61.34
2022-11-16T15:25:36.798Z,62.25
2022-11-16T15:30:32.507Z,62.11
2022-11-16T15:35:28.685Z,62.26
2022-11-16T15:40:20.352Z,62.84
2022-11-16T15:45:31.793Z,63.08
2022-11-16T15:50:23.662Z,64.40
2022-11-16T15:55:33.633Z,66.36
2022-11-16T16:00:27.044Z,67.45
2022-11-16T16:05:40.847Z,68.71
2022-11-16T16:10:32.957Z,69.78
2022-11-16T16:15:34.277Z,69.72
2022-11-16T16:20:29.094Z,70.83
2022-11-16T16:25:34.001Z,70.86
2022-11-16T16:30:27.851Z,71.57
2022-11-16T16:35:22.005Z,71.66
2022-11-16T16:40:13.596Z,72.09
2022-11-16T16:45:05.576Z,72.25
2022-11-16T16:49:57.186Z,73.07
2022-11-16T16:54:49.004Z,73.20
2022-11-16T16:59:40.673Z,72.84
2022-11-16T17:04:32.818Z,73.12
2022-11-16T17:09:24.389Z,73.18
2022-11-16T17:14:16.092Z,73.95
2022-11-16T17:19:07.666Z,73.32
2022-11-16T17:23:59.520Z,73.11
2022-11-16T17:28:55.010Z,73.06
2022-11-16T17:33:46.695Z,73.58
2022-11-16T17:38:39.361Z,74.48
2022-11-16T17:43:31.066Z,75.04
2022-11-16T17:48:22.726Z,75.43
2022-11-16T17:53:14.287Z,75.07
2022-11-16T17:58:05.929Z,74.95
2022-11-16T18:02:57.626Z,75.40
2022-11-16T18:07:49.195Z,76.31
2022-11-16T18:12:40.835Z,77.12
2022-11-16T18:17:32.459Z,76.88
2022-11-16T18:22:24.205Z,77.31
2022-11-16T18:27:15.849Z,77.84
2022-11-16T18:32:08.864Z,78.38
2022-11-16T18:37:01.101Z,78.40
2022-11-16T18:41:55.009Z,78.22
2022-11-16T18:46:46.946Z,78.06
2022-11-16T18:51:38.724Z,78.01
2022-11-16T18:56:30.697Z,77.42
2022-11-16T19:01:24.758Z,77.25
2022-11-16T19:06:17.778Z,76.31
2022-11-16T19:11:15.100Z,76.55
2022-11-16T19:16:08.197Z,76.90
2022-11-16T19:21:05.053Z,76.92
2022-11-16T19:26:01.490Z,76.42
2022-11-16T19:30:53.099Z,76.56
2022-11-16T19:35:44.771Z,76.33
2022-11-16T19:40:39.432Z,76.06
2022-11-16T19:45:31.046Z,76.58
2022-11-16T19:50:24.214Z,76.69
2022-11-16T19:55:15.946Z,77.29
2022-11-16T20:00:08.191Z,77.20
2022-11-16T20:04:59.846Z,77.41
2022-11-16T20:09:53.595Z,77.23
2022-11-16T20:14:45.305Z,77.08
2022-11-16T20:19:37.211Z,77.48
2022-11-16T20:24:28.979Z,77.49
2022-11-16T20:29:20.630Z,77.44
2022-11-16T20:34:14.807Z,77.42
2022-11-16T20:39:07.017Z,77.42
2022-11-16T20:44:00.480Z,77.11
2022-11-16T20:48:52.289Z,77.27
2022-11-16T20:53:44.660Z,77.12
2022-11-16T20:58:37.026Z,77.67
2022-11-16T21:03:29.087Z,77.64
2022-11-16T21:08:20.781Z,77.55
2022-11-16T21:13:33.756Z,77.43
2022-11-16T21:18:30.489Z,77.86
2022-11-16T21:23:22.803Z,77.97
2022-11-16T21:28:14.568Z,77.48
2022-11-16T21:33:06.199Z,77.46
2022-11-16T21:37:57.971Z,77.81
2022-11-16T21:42:51.729Z,77.74
2022-11-16T21:47:43.345Z,77.58
2022-11-16T21:52:34.931Z,78.57
2022-11-16T21:57:27.174Z,80.10
2022-11-16T22:02:18.793Z,80.61
2022-11-16T22:07:35.597Z,81.80
2022-11-16T22:12:28.538Z,83.29
2022-11-16T22:17:20.881Z,100.00
2022-11-16T22:22:12.819Z,99.92
2022-11-16T22:27:04.457Z,93.30
2022-11-16T22:31:56.082Z,80.45
2022-11-16T22:36:47.714Z,76.45
2022-11-16T22:41:39.261Z,79.07
2022-11-16T22:46:30.954Z,78.75
2022-11-16T22:51:27.992Z,78.67
2022-11-16T22:56:19.712Z,78.51
2022-11-16T23:01:11.370Z,78.61
2022-11-16T23:06:04.010Z,80.12
2022-11-16T23:11:26.055Z,82.46
2022-11-16T23:16:18.867Z,100.00
2022-11-16T23:21:29.093Z,100.00
2022-11-16T23:26:43.851Z,85.24
2022-11-16T23:31:36.611Z,85.22
2022-11-16T23:36:28.381Z,85.21
2022-11-16T23:41:38.526Z,85.05
2022-11-16T23:46:31.896Z,84.00
2022-11-16T23:51:24.527Z,83.37
2022-11-16T23:56:16.454Z,82.96
